createdAt,value
2023-03-18T00:01:00.856Z,83.33
2023-03-18T00:03:27.703Z,83.89
2023-03-18T00:06:03.061Z,84.39
2023-03-18T00:08:29.871Z,83.53
2023-03-18T00:10:56.690Z,83.30
2023-03-18T00:13:24.945Z,85.10
2023-03-18T00:15:52.068Z,85.89
2023-03-18T00:18:19.056Z,87.43
2023-03-18T00:20:46.060Z,86.93
2023-03-18T00:23:12.893Z,86.61
2023-03-18T00:25:39.793Z,86.33
2023-03-18T00:28:07.853Z,87.13
2023-03-18T00:30:38.382Z,86.32
2023-03-18T00:33:05.421Z,85.55
2023-03-18T00:35:32.399Z,84.73
2023-03-18T00:37:59.346Z,84.33
2023-03-18T00:40:26.534Z,85.04
2023-03-18T00:42:54.889Z,86.38
2023-03-18T00:45:21.721Z,86.27
2023-03-18T00:47:50.376Z,86.54
2023-03-18T00:50:17.523Z,87.10
2023-03-18T00:52:44.279Z,85.97
2023-03-18T00:55:11.103Z,87.42
2023-03-18T00:57:37.873Z,87.83
2023-03-18T01:00:06.447Z,87.52
2023-03-18T01:02:33.189Z,88.16
2023-03-18T01:05:01.817Z,87.87
2023-03-18T01:07:28.613Z,88.46
2023-03-18T01:09:55.387Z,87.38
2023-03-18T01:12:22.207Z,87.99
2023-03-18T01:14:48.947Z,88.73
2023-03-18T01:17:15.703Z,88.56
2023-03-18T01:19:42.564Z,88.25
2023-03-18T01:22:10.682Z,89.86
2023-03-18T01:24:39.051Z,88.22
2023-03-18T01:27:05.961Z,88.51
2023-03-18T01:29:32.684Z,89.78
2023-03-18T01:31:59.582Z,90.73
2023-03-18T01:34:26.411Z,91.66
2023-03-18T01:36:53.215Z,91.65
2023-03-18T01:39:21.915Z,91.74
2023-03-18T01:41:49.108Z,91.75
2023-03-18T01:44:18.338Z,91.86
2023-03-18T01:46:46.002Z,91.36
2023-03-18T01:49:17.738Z,90.63
2023-03-18T01:51:48.578Z,90.65
2023-03-18T01:54:16.234Z,91.70
2023-03-18T01:56:47.203Z,90.55
2023-03-18T01:59:15.024Z,89.53
2023-03-18T02:01:51.288Z,89.48
2023-03-18T02:04:20.746Z,90.33
2023-03-18T02:06:47.738Z,90.41
2023-03-18T02:09:14.732Z,90.21
2023-03-18T02:11:46.365Z,89.53
2023-03-18T02:14:15.042Z,89.75
2023-03-18T02:16:46.417Z,90.94
2023-03-18T02:19:29.671Z,91.44
2023-03-18T02:22:05.339Z,91.21
2023-03-18T02:24:39.577Z,90.57
2023-03-18T02:27:14.460Z,91.38
2023-03-18T02:29:42.156Z,91.15
2023-03-18T02:32:10.021Z,89.84
2023-03-18T02:34:38.621Z,89.17
2023-03-18T02:37:05.460Z,90.20
2023-03-18T02:39:32.237Z,90.23
2023-03-18T02:41:59.065Z,90.35
2023-03-18T02:44:27.953Z,90.71
2023-03-18T02:46:57.520Z,91.80
2023-03-18T02:49:26.090Z,91.84
2023-03-18T02:51:53.266Z,91.48
2023-03-18T02:54:22.112Z,90.00
2023-03-18T02:56:49.145Z,89.87
2023-03-18T02:59:16.321Z,89.91
2023-03-18T03:01:46.906Z,90.10
2023-03-18T03:04:14.735Z,89.86
2023-03-18T03:06:41.876Z,90.24
2023-03-18T03:09:10.388Z,90.34
2023-03-18T03:11:37.620Z,89.78
2023-03-18T03:14:04.474Z,90.90
2023-03-18T03:16:31.392Z,90.17
2023-03-18T03:18:59.583Z,90.97
2023-03-18T03:21:26.354Z,91.26
2023-03-18T03:23:53.246Z,91.44
2023-03-18T03:26:20.773Z,91.30
2023-03-18T03:28:47.821Z,92.96
2023-03-18T03:31:14.962Z,92.89
2023-03-18T03:33:42.440Z,93.88
2023-03-18T03:36:13.083Z,92.83
2023-03-18T03:38:39.926Z,92.05
2023-03-18T03:41:06.652Z,91.49
2023-03-18T03:43:33.376Z,91.21
2023-03-18T03:46:00.127Z,89.86
2023-03-18T03:48:26.935Z,90.56
2023-03-18T03:50:54.053Z,91.03
2023-03-18T03:53:22.392Z,92.26
2023-03-18T03:55:49.263Z,91.42
2023-03-18T03:58:16.008Z,91.15
2023-03-18T04:00:42.822Z,91.54
2023-03-18T04:03:09.591Z,92.66
2023-03-18T04:05:36.539Z,93.69
2023-03-18T04:08:04.149Z,92.61
2023-03-18T04:10:32.444Z,93.49
2023-03-18T04:12:59.390Z,91.86
2023-03-18T04:15:26.115Z,93.14
2023-03-18T04:17:53.049Z,92.75
2023-03-18T04:20:19.929Z,91.78
2023-03-18T04:22:46.744Z,92.08
2023-03-18T04:25:13.803Z,92.46
2023-03-18T04:27:42.531Z,94.00
2023-03-18T04:30:11.052Z,93.08
2023-03-18T04:32:37.979Z,92.87
2023-03-18T04:35:06.016Z,94.11
2023-03-18T04:37:33.172Z,94.20
2023-03-18T04:40:01.269Z,94.15
2023-03-18T04:42:28.097Z,94.22
2023-03-18T04:44:56.277Z,93.32
2023-03-18T04:47:23.307Z,93.00
2023-03-18T04:49:50.136Z,93.27
2023-03-18T04:52:17.164Z,94.01
2023-03-18T04:54:44.011Z,93.68
2023-03-18T04:57:10.836Z,92.83
2023-03-18T04:59:37.708Z,93.08
2023-03-18T05:02:06.041Z,92.72
2023-03-18T05:04:32.813Z,92.75
2023-03-18T05:07:13.074Z,92.55
2023-03-18T05:09:41.540Z,92.69
2023-03-18T05:12:12.180Z,93.18
2023-03-18T05:14:39.071Z,93.52
2023-03-18T05:17:09.471Z,93.62
2023-03-18T05:19:36.217Z,94.75
2023-03-18T05:22:03.039Z,95.28
2023-03-18T05:24:29.880Z,95.13
2023-03-18T05:26:56.913Z,94.85
2023-03-18T05:29:23.708Z,95.09
2023-03-18T05:31:50.528Z,94.72
2023-03-18T05:34:18.762Z,94.20
2023-03-18T05:36:45.509Z,95.48
2023-03-18T05:39:12.313Z,95.38
2023-03-18T05:41:39.152Z,95.29
2023-03-18T05:44:06.396Z,95.18
2023-03-18T05:46:33.244Z,95.74
2023-03-18T05:49:00.044Z,95.21
2023-03-18T05:51:28.231Z,95.13
2023-03-18T05:53:55.075Z,93.65
2023-03-18T05:56:21.939Z,93.60
2023-03-18T05:58:48.642Z,92.80
2023-03-18T06:01:15.525Z,93.59
2023-03-18T06:03:42.356Z,94.22
2023-03-18T06:06:09.230Z,95.36
2023-03-18T06:08:38.170Z,95.84
2023-03-18T06:11:05.165Z,95.35
2023-03-18T06:13:31.955Z,95.89
2023-03-18T06:15:59.922Z,96.00
2023-03-18T06:18:27.054Z,95.54
2023-03-18T06:20:54.150Z,95.41
2023-03-18T06:23:21.517Z,93.96
2023-03-18T06:25:50.087Z,94.92
2023-03-18T06:28:17.098Z,95.20
2023-03-18T06:30:43.927Z,94.63
2023-03-18T06:33:10.992Z,94.45
2023-03-18T06:35:37.823Z,95.94
2023-03-18T06:38:04.676Z,95.31
2023-03-18T06:40:31.506Z,95.11
2023-03-18T06:42:59.680Z,94.54
2023-03-18T06:45:26.655Z,92.21
2023-03-18T06:47:53.396Z,90.89
2023-03-18T06:50:20.276Z,91.29
2023-03-18T06:52:47.078Z,88.73
2023-03-18T06:55:13.922Z,88.69
2023-03-18T06:57:40.783Z,86.53
2023-03-18T07:00:10.698Z,81.70
2023-03-18T07:02:39.541Z,78.32
2023-03-18T07:05:07.641Z,76.61
2023-03-18T07:07:34.484Z,74.64
2023-03-18T07:10:01.378Z,73.57
2023-03-18T07:12:28.130Z,73.00
2023-03-18T07:14:54.886Z,70.24
2023-03-18T07:17:23.180Z,67.80
2023-03-18T07:19:50.012Z,65.54
2023-03-18T07:22:16.751Z,64.86
2023-03-18T07:24:43.678Z,64.69
2023-03-18T07:27:10.511Z,62.60
2023-03-18T07:29:37.250Z,60.68
2023-03-18T07:32:04.388Z,61.33
2023-03-18T07:34:32.730Z,60.22
2023-03-18T07:36:59.592Z,60.93
2023-03-18T07:39:26.388Z,59.42
2023-03-18T07:41:53.127Z,57.17
2023-03-18T07:44:19.877Z,56.89
2023-03-18T07:46:46.801Z,56.33
2023-03-18T07:49:13.647Z,55.41
2023-03-18T07:51:41.809Z,55.21
2023-03-18T07:54:08.680Z,55.39
2023-03-18T07:56:35.408Z,55.42
2023-03-18T07:59:02.142Z,54.97
2023-03-18T08:01:29.330Z,54.05
2023-03-18T08:03:56.739Z,53.39
2023-03-18T08:06:23.481Z,53.74
2023-03-18T08:08:51.680Z,53.25
2023-03-18T08:11:18.548Z,53.35
2023-03-18T08:13:45.394Z,53.35
2023-03-18T08:16:12.227Z,51.83
2023-03-18T08:18:39.289Z,52.31
2023-03-18T08:21:06.597Z,52.37
2023-03-18T08:23:33.425Z,51.17
2023-03-18T08:26:01.675Z,52.36
2023-03-18T08:28:28.678Z,52.14
2023-03-18T08:30:56.571Z,51.77
2023-03-18T08:33:24.428Z,51.34
2023-03-18T08:35:51.482Z,50.63
2023-03-18T08:38:18.712Z,49.82
2023-03-18T08:40:46.209Z,51.48
2023-03-18T08:43:14.488Z,50.49
2023-03-18T08:45:41.504Z,51.56
2023-03-18T08:48:08.756Z,50.92
2023-03-18T08:50:35.971Z,50.91
2023-03-18T08:53:04.506Z,49.55
2023-03-18T08:55:33.353Z,49.75
2023-03-18T08:58:01.569Z,50.12
2023-03-18T09:00:30.251Z,50.20
2023-03-18T09:02:57.896Z,48.57
2023-03-18T09:05:25.174Z,48.08
2023-03-18T09:07:52.476Z,47.09
2023-03-18T09:10:19.974Z,47.90
2023-03-18T09:12:46.909Z,48.16
2023-03-18T09:15:15.694Z,47.64
2023-03-18T09:17:59.821Z,48.02
2023-03-18T09:20:26.886Z,47.93
2023-03-18T09:22:53.874Z,46.85
2023-03-18T09:25:20.867Z,47.85
2023-03-18T09:27:47.620Z,46.94
2023-03-18T09:30:14.934Z,45.89
2023-03-18T09:32:43.183Z,45.38
2023-03-18T09:35:13.027Z,44.10
2023-03-18T09:37:40.433Z,43.76
2023-03-18T09:40:08.778Z,42.79
2023-03-18T09:42:49.377Z,43.88
2023-03-18T09:45:31.466Z,43.62
2023-03-18T09:48:13.355Z,43.56
2023-03-18T09:50:47.237Z,43.87
2023-03-18T09:53:19.783Z,43.94
2023-03-18T09:55:48.866Z,44.75
2023-03-18T09:58:23.560Z,45.21
2023-03-18T10:00:53.440Z,44.65
2023-03-18T10:03:31.281Z,44.17
2023-03-18T10:06:02.888Z,43.99
2023-03-18T10:08:42.707Z,44.12
2023-03-18T10:11:18.934Z,43.33
2023-03-18T10:13:58.116Z,43.38
2023-03-18T10:16:29.240Z,43.64
2023-03-18T10:18:57.592Z,43.67
2023-03-18T10:21:37.762Z,42.76
2023-03-18T10:24:17.700Z,43.36
2023-03-18T10:26:48.561Z,43.57
2023-03-18T10:29:38.657Z,43.13
2023-03-18T10:32:18.884Z,43.44
2023-03-18T10:34:58.266Z,44.05
2023-03-18T10:37:36.409Z,43.28
2023-03-18T10:40:11.937Z,42.20
2023-03-18T10:42:40.164Z,41.38
2023-03-18T10:45:19.419Z,40.87
2023-03-18T10:47:52.585Z,42.00
2023-03-18T10:50:25.147Z,41.92
2023-03-18T10:52:56.194Z,41.15
2023-03-18T10:55:30.809Z,40.85
2023-03-18T10:57:57.520Z,40.59
2023-03-18T11:00:27.865Z,41.07
2023-03-18T11:02:55.220Z,40.25
2023-03-18T11:05:26.805Z,40.55
2023-03-18T11:07:58.917Z,39.31
2023-03-18T11:10:27.638Z,39.86
2023-03-18T11:12:57.836Z,38.03
2023-03-18T11:15:24.632Z,39.51
2023-03-18T11:17:51.503Z,40.17
2023-03-18T11:20:24.591Z,40.47
2023-03-18T11:22:52.684Z,40.67
2023-03-18T11:25:21.673Z,39.89
2023-03-18T11:27:50.722Z,41.27
2023-03-18T11:30:33.015Z,40.78
2023-03-18T11:33:05.207Z,40.24
2023-03-18T11:35:39.933Z,40.94
2023-03-18T11:38:15.042Z,39.01
2023-03-18T11:40:42.501Z,40.87
2023-03-18T11:43:18.003Z,39.86
2023-03-18T11:45:49.992Z,40.44
2023-03-18T11:48:23.025Z,40.27
2023-03-18T11:51:04.545Z,39.48
2023-03-18T11:53:46.327Z,39.21
2023-03-18T11:56:21.308Z,38.62
2023-03-18T11:59:16.883Z,38.26
2023-03-18T12:01:51.578Z,39.16
2023-03-18T12:04:39.159Z,38.34
2023-03-18T12:07:31.005Z,37.58
2023-03-18T12:10:04.194Z,37.15
2023-03-18T12:12:51.297Z,36.60
2023-03-18T12:15:28.371Z,37.27
2023-03-18T12:18:02.266Z,38.19
2023-03-18T12:20:39.101Z,36.93
2023-03-18T12:23:13.403Z,34.51
2023-03-18T12:26:02.219Z,34.88
2023-03-18T12:28:35.883Z,35.40
2023-03-18T12:31:36.008Z,36.34
2023-03-18T12:34:04.044Z,36.89
2023-03-18T12:36:52.381Z,36.78
2023-03-18T12:39:41.885Z,35.48
2023-03-18T12:42:11.023Z,35.96
2023-03-18T12:44:56.789Z,36.40
2023-03-18T12:47:28.532Z,37.03
2023-03-18T12:50:00.996Z,37.45
2023-03-18T12:52:35.657Z,37.51
2023-03-18T12:55:11.072Z,37.29
2023-03-18T12:57:42.264Z,35.66
2023-03-18T13:00:18.970Z,36.72
2023-03-18T13:02:54.179Z,34.78
2023-03-18T13:05:27.097Z,35.46
2023-03-18T13:08:10.835Z,35.03
2023-03-18T13:10:39.090Z,35.42
2023-03-18T13:13:09.317Z,34.06
2023-03-18T13:15:40.626Z,35.76
2023-03-18T13:18:15.641Z,35.62
2023-03-18T13:20:44.210Z,35.66
2023-03-18T13:23:17.076Z,34.74
2023-03-18T13:25:57.331Z,35.92
2023-03-18T13:28:42.872Z,35.67
2023-03-18T13:31:17.508Z,36.72
2023-03-18T13:34:15.496Z,36.18
2023-03-18T13:37:00.675Z,34.81
2023-03-18T13:39:56.651Z,36.80
2023-03-18T13:42:27.087Z,35.58
2023-03-18T13:45:03.656Z,36.01
2023-03-18T13:47:32.247Z,35.70
2023-03-18T13:50:01.050Z,35.76
2023-03-18T13:52:35.195Z,36.21
2023-03-18T13:55:03.756Z,34.34
2023-03-18T13:57:46.094Z,34.17
2023-03-18T14:00:25.619Z,36.78
2023-03-18T14:03:14.572Z,35.34
2023-03-18T14:05:42.498Z,35.32
2023-03-18T14:08:45.732Z,36.71
2023-03-18T14:11:45.218Z,36.17
2023-03-18T14:14:55.056Z,37.51
2023-03-18T14:17:26.537Z,37.57
2023-03-18T14:19:54.817Z,37.67
2023-03-18T14:22:28.147Z,37.68
2023-03-18T14:25:10.853Z,38.45
2023-03-18T14:27:45.961Z,38.48
2023-03-18T14:30:42.794Z,38.35
2023-03-18T14:33:34.981Z,38.79
2023-03-18T14:36:05.567Z,39.61
2023-03-18T14:38:38.476Z,39.27
2023-03-18T14:41:15.113Z,40.02
2023-03-18T14:43:52.577Z,40.28
2023-03-18T14:46:27.084Z,40.52
2023-03-18T14:48:54.046Z,40.08
2023-03-18T14:51:23.284Z,40.94
2023-03-18T14:53:53.269Z,40.73
2023-03-18T14:56:21.918Z,40.45
2023-03-18T14:58:51.882Z,41.20
2023-03-18T15:01:23.568Z,41.05
2023-03-18T15:03:53.043Z,41.38
2023-03-18T15:06:22.222Z,40.82
2023-03-18T15:08:51.168Z,42.44
2023-03-18T15:11:21.160Z,40.90
2023-03-18T15:13:49.116Z,41.61
2023-03-18T15:16:19.083Z,42.10
2023-03-18T15:18:52.277Z,42.41
2023-03-18T15:21:23.002Z,42.89
2023-03-18T15:23:52.030Z,42.74
2023-03-18T15:26:20.897Z,43.97
2023-03-18T15:28:48.548Z,42.59
2023-03-18T15:31:25.143Z,42.55
2023-03-18T15:34:05.809Z,43.25
2023-03-18T15:36:40.484Z,44.80
2023-03-18T15:39:21.997Z,44.63
2023-03-18T15:41:53.651Z,44.46
2023-03-18T15:44:26.081Z,45.24
2023-03-18T15:46:52.872Z,45.08
2023-03-18T15:49:25.399Z,45.75
2023-03-18T15:51:58.913Z,44.90
2023-03-18T15:54:27.383Z,45.59
2023-03-18T15:56:55.852Z,46.16
2023-03-18T15:59:25.213Z,45.98
2023-03-18T16:01:54.048Z,47.35
2023-03-18T16:04:22.847Z,46.10
2023-03-18T16:06:51.035Z,46.56
2023-03-18T16:09:19.924Z,47.64
2023-03-18T16:11:50.603Z,48.52
2023-03-18T16:14:21.256Z,46.33
2023-03-18T16:16:48.795Z,46.31
2023-03-18T16:19:18.932Z,46.71
2023-03-18T16:21:47.061Z,46.95
2023-03-18T16:24:13.849Z,46.57
2023-03-18T16:26:40.657Z,47.99
2023-03-18T16:29:14.287Z,48.05
2023-03-18T16:31:42.511Z,49.03
2023-03-18T16:34:14.780Z,49.54
2023-03-18T16:36:41.723Z,48.71
2023-03-18T16:39:16.638Z,49.37
2023-03-18T16:41:43.820Z,49.47
2023-03-18T16:44:13.322Z,49.65
2023-03-18T16:46:41.001Z,49.46
2023-03-18T16:49:13.923Z,49.84
2023-03-18T16:51:40.760Z,50.38
2023-03-18T16:54:19.512Z,50.61
2023-03-18T16:56:46.956Z,50.00
2023-03-18T16:59:14.843Z,50.78
2023-03-18T17:01:41.908Z,51.08
2023-03-18T17:04:18.055Z,53.00
2023-03-18T17:06:45.072Z,55.16
2023-03-18T17:09:11.953Z,55.41
2023-03-18T17:11:41.405Z,58.44
2023-03-18T17:14:21.607Z,57.22
2023-03-18T17:16:48.514Z,59.99
2023-03-18T17:19:22.197Z,61.57
2023-03-18T17:21:49.150Z,61.30
2023-03-18T17:24:15.887Z,62.49
2023-03-18T17:26:44.472Z,62.72
2023-03-18T17:29:21.811Z,61.34
2023-03-18T17:31:49.713Z,64.56
2023-03-18T17:34:18.099Z,65.73
2023-03-18T17:36:45.478Z,65.68
2023-03-18T17:39:13.405Z,65.92
2023-03-18T17:41:40.525Z,64.70
2023-03-18T17:44:24.212Z,64.54
2023-03-18T17:46:51.530Z,68.16
2023-03-18T17:49:20.613Z,67.25
2023-03-18T17:51:47.772Z,66.48
2023-03-18T17:54:18.209Z,67.73
2023-03-18T17:56:45.805Z,68.48
2023-03-18T17:59:17.635Z,68.59
2023-03-18T18:01:46.672Z,69.08
2023-03-18T18:04:16.437Z,69.46
2023-03-18T18:06:43.734Z,69.46
2023-03-18T18:09:11.566Z,69.95
2023-03-18T18:11:39.833Z,69.21
2023-03-18T18:14:17.930Z,69.93
2023-03-18T18:16:45.160Z,69.92
2023-03-18T18:19:11.955Z,68.45
2023-03-18T18:21:38.777Z,71.20
2023-03-18T18:24:13.335Z,70.63
2023-03-18T18:26:40.154Z,69.88
2023-03-18T18:29:19.757Z,68.62
2023-03-18T18:31:48.428Z,69.10
2023-03-18T18:34:15.450Z,69.78
2023-03-18T18:36:42.439Z,70.16
2023-03-18T18:39:09.305Z,70.46
2023-03-18T18:41:37.810Z,71.72
2023-03-18T18:44:04.868Z,71.83
2023-03-18T18:46:31.825Z,71.96
2023-03-18T18:49:00.134Z,71.52
2023-03-18T18:51:26.884Z,72.03
2023-03-18T18:53:54.320Z,72.86
2023-03-18T18:56:24.155Z,72.37
2023-03-18T18:58:51.919Z,72.83
2023-03-18T19:01:19.522Z,73.36
2023-03-18T19:03:46.852Z,75.33
2023-03-18T19:06:24.740Z,72.39
2023-03-18T19:08:52.846Z,73.79
2023-03-18T19:11:19.656Z,74.47
2023-03-18T19:13:46.413Z,74.61
2023-03-18T19:16:23.980Z,74.47
2023-03-18T19:18:50.830Z,74.11
2023-03-18T19:21:17.583Z,75.25
2023-03-18T19:23:46.206Z,74.74
2023-03-18T19:26:15.078Z,74.54
2023-03-18T19:28:51.536Z,75.09
2023-03-18T19:31:25.784Z,76.51
2023-03-18T19:33:53.080Z,75.74
2023-03-18T19:36:25.696Z,75.77
2023-03-18T19:38:54.945Z,76.27
2023-03-18T19:41:22.679Z,76.57
2023-03-18T19:43:50.573Z,74.45
2023-03-18T19:46:19.988Z,75.70
2023-03-18T19:48:47.193Z,75.99
2023-03-18T19:51:14.228Z,77.51
2023-03-18T19:53:42.107Z,76.64
2023-03-18T19:56:22.082Z,76.39
2023-03-18T19:58:48.863Z,78.03
2023-03-18T20:01:15.758Z,78.46
2023-03-18T20:03:42.777Z,80.45
2023-03-18T20:06:09.643Z,80.17
2023-03-18T20:08:36.540Z,77.85
2023-03-18T20:11:03.325Z,76.99
2023-03-18T20:13:32.720Z,77.07
2023-03-18T20:15:59.621Z,75.41
2023-03-18T20:18:26.465Z,75.75
2023-03-18T20:20:53.679Z,75.81
2023-03-18T20:23:23.506Z,74.49
2023-03-18T20:25:50.481Z,76.39
2023-03-18T20:28:19.908Z,76.79
2023-03-18T20:30:49.446Z,75.28
2023-03-18T20:33:16.348Z,76.49
2023-03-18T20:35:44.870Z,77.45
2023-03-18T20:38:16.988Z,78.20
2023-03-18T20:40:45.178Z,79.45
2023-03-18T20:43:14.591Z,79.96
2023-03-18T20:45:41.358Z,80.50
2023-03-18T20:48:09.696Z,80.68
2023-03-18T20:50:37.308Z,80.52
2023-03-18T20:53:04.985Z,81.68
2023-03-18T20:55:33.861Z,82.01
2023-03-18T20:58:01.467Z,81.29
2023-03-18T21:00:30.446Z,79.94
2023-03-18T21:02:58.490Z,79.75
2023-03-18T21:05:27.081Z,79.44
2023-03-18T21:07:53.827Z,79.12
2023-03-18T21:10:22.470Z,79.59
2023-03-18T21:12:49.628Z,79.75
2023-03-18T21:15:18.334Z,80.54
2023-03-18T21:17:45.236Z,80.96
2023-03-18T21:20:22.982Z,81.20
2023-03-18T21:22:51.454Z,81.28
2023-03-18T21:25:20.547Z,80.56
2023-03-18T21:27:47.714Z,80.84
2023-03-18T21:30:16.198Z,80.55
2023-03-18T21:32:44.039Z,79.69
2023-03-18T21:35:17.366Z,79.95
2023-03-18T21:37:46.186Z,79.77
2023-03-18T21:40:20.035Z,79.84
2023-03-18T21:42:47.095Z,80.37
2023-03-18T21:45:16.269Z,80.83
2023-03-18T21:47:43.342Z,82.93
2023-03-18T21:50:20.176Z,82.55
2023-03-18T21:52:47.454Z,82.05
2023-03-18T21:55:14.887Z,84.09
2023-03-18T21:57:43.518Z,84.02
2023-03-18T22:00:15.877Z,85.60
2023-03-18T22:02:43.013Z,83.54
2023-03-18T22:05:17.100Z,82.08
2023-03-18T22:07:44.074Z,81.09
2023-03-18T22:10:15.845Z,80.94
2023-03-18T22:12:44.321Z,83.03
2023-03-18T22:15:33.157Z,83.36
2023-03-18T22:18:00.052Z,82.30
2023-03-18T22:20:27.336Z,82.50
2023-03-18T22:22:54.199Z,81.75
2023-03-18T22:25:27.911Z,82.07
2023-03-18T22:28:03.163Z,81.52
2023-03-18T22:30:31.895Z,82.02
2023-03-18T22:33:01.484Z,79.98
2023-03-18T22:35:29.693Z,81.34
2023-03-18T22:37:57.017Z,81.45
2023-03-18T22:40:26.019Z,80.65
2023-03-18T22:42:54.937Z,80.72
2023-03-18T22:45:25.487Z,81.14
2023-03-18T22:47:54.226Z,80.42
2023-03-18T22:50:22.127Z,81.80
2023-03-18T22:52:49.882Z,82.63
2023-03-18T22:55:20.410Z,83.22
2023-03-18T22:57:47.418Z,83.69
2023-03-18T23:00:23.938Z,83.45
2023-03-18T23:02:50.888Z,84.09
2023-03-18T23:05:19.780Z,85.31
2023-03-18T23:07:46.664Z,85.43
2023-03-18T23:10:13.631Z,85.11
2023-03-18T23:12:40.772Z,85.42
2023-03-18T23:15:09.169Z,86.06
2023-03-18T23:17:37.294Z,85.38
2023-03-18T23:20:04.746Z,85.24
2023-03-18T23:22:34.214Z,86.45
2023-03-18T23:25:01.365Z,84.92
2023-03-18T23:27:28.467Z,85.08
2023-03-18T23:29:56.069Z,86.69
2023-03-18T23:32:25.090Z,85.87
2023-03-18T23:34:53.243Z,84.84
2023-03-18T23:37:19.973Z,85.58
2023-03-18T23:39:46.758Z,85.78
2023-03-18T23:42:14.512Z,84.88
2023-03-18T23:44:41.452Z,84.46
2023-03-18T23:47:09.803Z,84.71
2023-03-18T23:49:36.951Z,84.89
2023-03-18T23:52:07.615Z,84.88
2023-03-18T23:54:35.138Z,85.40
2023-03-18T23:57:02.339Z,86.01
2023-03-18T23:59:29.875Z,85.31
